createdAt,value
2022-07-28T00:00:20.451Z,89.83
2022-07-28T00:01:22.773Z,90.42
2022-07-28T00:02:27.083Z,90.47
2022-07-28T00:03:30.020Z,89.89
2022-07-28T00:04:33.116Z,90.10
2022-07-28T00:05:35.415Z,90.45
2022-07-28T00:06:37.780Z,89.83
2022-07-28T00:07:40.037Z,89.58
2022-07-28T00:08:42.377Z,89.62
2022-07-28T00:09:44.531Z,89.32
2022-07-28T00:10:47.026Z,89.24
2022-07-28T00:11:51.455Z,88.93
2022-07-28T00:12:53.275Z,88.42
2022-07-28T00:13:55.715Z,88.42
2022-07-28T00:14:58.068Z,88.38
2022-07-28T00:16:01.100Z,88.04
2022-07-28T00:17:03.825Z,87.68
2022-07-28T00:18:06.023Z,87.60
2022-07-28T00:19:08.421Z,87.66
2022-07-28T00:20:11.170Z,88.17
2022-07-28T00:21:14.614Z,88.28
2022-07-28T00:22:17.718Z,87.92
2022-07-28T00:23:20.465Z,87.54
2022-07-28T00:24:23.966Z,87.90
2022-07-28T00:25:26.215Z,87.71
2022-07-28T00:26:30.327Z,87.67
2022-07-28T00:27:32.725Z,87.38
2022-07-28T00:28:35.985Z,87.59
2022-07-28T00:29:49.274Z,87.10
2022-07-28T00:30:42.527Z,86.67
2022-07-28T00:31:44.886Z,86.75
2022-07-28T00:32:47.410Z,86.39
2022-07-28T00:33:49.919Z,85.96
2022-07-28T00:34:53.434Z,85.49
2022-07-28T00:35:56.071Z,85.60
2022-07-28T00:36:59.047Z,85.68
2022-07-28T00:38:01.252Z,86.24
2022-07-28T00:39:04.000Z,85.93
2022-07-28T00:40:08.358Z,86.01
2022-07-28T00:41:11.275Z,85.90
2022-07-28T00:42:19.436Z,85.30
2022-07-28T00:43:21.925Z,85.38
2022-07-28T00:44:23.886Z,85.25
2022-07-28T00:45:26.045Z,84.78
2022-07-28T00:46:29.021Z,85.02
2022-07-28T00:47:33.508Z,85.44
2022-07-28T00:48:44.319Z,85.81
2022-07-28T00:49:46.695Z,85.61
2022-07-28T00:50:49.059Z,84.98
2022-07-28T00:51:51.881Z,85.06
2022-07-28T00:52:55.106Z,84.92
2022-07-28T00:53:58.245Z,85.11
2022-07-28T00:55:02.887Z,85.03
2022-07-28T00:56:07.035Z,84.93
2022-07-28T00:57:09.613Z,84.80
2022-07-28T00:58:11.683Z,84.90
2022-07-28T00:59:14.157Z,84.85
2022-07-28T01:00:17.441Z,84.96
2022-07-28T01:01:20.182Z,85.14
2022-07-28T01:02:23.998Z,85.15
2022-07-28T01:03:28.468Z,85.43
2022-07-28T01:04:30.987Z,85.50
2022-07-28T01:05:54.681Z,85.37
2022-07-28T01:07:07.040Z,85.41
2022-07-28T01:09:32.037Z,85.55
2022-07-28T01:11:09.224Z,86.22
2022-07-28T01:12:34.298Z,86.64
2022-07-28T01:13:55.414Z,86.69
2022-07-28T01:15:17.895Z,86.88
2022-07-28T01:16:23.597Z,86.68
2022-07-28T01:17:52.719Z,86.35
2022-07-28T01:19:04.564Z,86.06
2022-07-28T01:20:16.997Z,86.25
2022-07-28T01:21:23.750Z,86.12
2022-07-28T01:22:30.218Z,85.54
2022-07-28T01:23:41.756Z,86.46
2022-07-28T01:25:05.857Z,86.51
2022-07-28T01:26:31.533Z,86.71
2022-07-28T01:27:58.174Z,86.80
2022-07-28T01:29:09.846Z,86.74
2022-07-28T01:30:35.492Z,86.64
2022-07-28T01:31:41.371Z,87.04
2022-07-28T01:32:47.626Z,87.68
2022-07-28T01:33:53.185Z,88.11
2022-07-28T01:35:15.499Z,88.17
2022-07-28T01:36:22.799Z,88.25
2022-07-28T01:37:28.743Z,88.26
2022-07-28T01:38:33.769Z,88.20
2022-07-28T01:39:39.065Z,88.11
2022-07-28T01:40:44.981Z,88.28
2022-07-28T01:41:50.882Z,88.45
2022-07-28T01:42:56.560Z,88.33
2022-07-28T01:44:02.366Z,88.80
2022-07-28T01:45:07.473Z,88.77
2022-07-28T01:46:12.171Z,88.93
2022-07-28T01:47:16.340Z,88.99
2022-07-28T01:48:22.009Z,89.06
2022-07-28T01:49:27.496Z,88.96
2022-07-28T01:50:32.391Z,89.25
2022-07-28T01:51:36.210Z,89.63
2022-07-28T01:52:40.809Z,89.46
2022-07-28T01:53:45.589Z,89.60
2022-07-28T01:54:49.541Z,89.94
2022-07-28T01:55:52.522Z,90.17
2022-07-28T01:56:56.722Z,90.05
2022-07-28T01:58:00.890Z,89.83
2022-07-28T01:59:05.979Z,89.76
2022-07-28T02:00:10.749Z,90.49
2022-07-28T02:01:17.395Z,91.17
2022-07-28T02:02:20.517Z,91.98
2022-07-28T02:03:24.715Z,91.85
2022-07-28T02:04:27.901Z,91.81
2022-07-28T02:05:32.992Z,91.81
2022-07-28T02:06:38.867Z,91.55
2022-07-28T02:07:43.734Z,91.45
2022-07-28T02:08:47.102Z,91.59
2022-07-28T02:09:50.261Z,91.30
2022-07-28T02:10:55.383Z,91.35
2022-07-28T02:12:00.005Z,92.10
2022-07-28T02:13:03.889Z,92.50
2022-07-28T02:14:18.458Z,92.40
2022-07-28T02:15:22.127Z,92.27
2022-07-28T02:16:26.830Z,92.15
2022-07-28T02:18:44.557Z,92.11
2022-07-28T02:19:49.720Z,92.56
2022-07-28T02:20:52.481Z,92.84
2022-07-28T02:23:16.659Z,93.29
2022-07-28T02:24:22.501Z,93.08
2022-07-28T02:25:25.358Z,92.81
2022-07-28T02:26:34.523Z,92.46
2022-07-28T02:27:43.463Z,92.79
2022-07-28T02:28:48.856Z,93.04
2022-07-28T02:30:00.936Z,93.24
2022-07-28T02:31:06.175Z,93.26
2022-07-28T02:32:27.305Z,93.60
2022-07-28T02:33:59.589Z,93.45
2022-07-28T02:34:35.614Z,94.15
2022-07-28T02:35:41.289Z,94.09
2022-07-28T02:36:56.414Z,93.94
2022-07-28T02:38:03.716Z,94.03
2022-07-28T02:39:09.558Z,94.76
2022-07-28T02:40:14.723Z,95.10
2022-07-28T02:41:29.018Z,94.81
2022-07-28T02:42:34.625Z,94.48
2022-07-28T02:43:49.218Z,94.61
2022-07-28T02:44:46.254Z,94.81
2022-07-28T02:45:52.111Z,95.07
2022-07-28T02:46:57.636Z,94.96
2022-07-28T02:48:03.424Z,95.37
2022-07-28T02:49:09.196Z,95.41
2022-07-28T02:50:15.217Z,95.10
2022-07-28T02:51:20.330Z,95.34
2022-07-28T02:52:24.948Z,94.46
2022-07-28T02:53:30.817Z,94.05
2022-07-28T02:54:34.652Z,93.59
2022-07-28T02:55:39.396Z,93.57
2022-07-28T02:56:42.720Z,93.37
2022-07-28T02:57:51.996Z,93.10
2022-07-28T02:58:54.173Z,93.59
2022-07-28T02:59:57.665Z,93.80
2022-07-28T03:01:00.568Z,93.97
2022-07-28T03:02:03.513Z,93.60
2022-07-28T03:03:06.575Z,93.12
2022-07-28T03:04:11.156Z,92.64
2022-07-28T03:05:18.534Z,93.26
2022-07-28T03:06:26.555Z,93.38
2022-07-28T03:07:32.333Z,93.09
2022-07-28T03:08:34.481Z,92.80
2022-07-28T03:09:42.160Z,92.92
2022-07-28T03:10:44.933Z,92.92
2022-07-28T03:11:52.020Z,93.15
2022-07-28T03:12:55.091Z,92.83
2022-07-28T03:13:57.062Z,92.47
2022-07-28T03:14:59.083Z,92.00
2022-07-28T03:16:01.356Z,91.90
2022-07-28T03:17:04.163Z,92.07
2022-07-28T03:18:07.411Z,91.90
2022-07-28T03:19:09.660Z,91.23
2022-07-28T03:20:12.568Z,90.28
2022-07-28T03:21:14.766Z,90.25
2022-07-28T03:22:17.679Z,90.32
2022-07-28T03:23:22.433Z,90.34
2022-07-28T03:24:28.336Z,89.84
2022-07-28T03:25:40.468Z,89.75
2022-07-28T03:26:46.401Z,89.59
2022-07-28T03:27:52.298Z,89.40
2022-07-28T03:28:57.036Z,88.84
2022-07-28T03:30:08.054Z,88.76
2022-07-28T03:31:12.800Z,88.75
2022-07-28T03:32:18.441Z,89.07
2022-07-28T03:33:20.559Z,89.17
2022-07-28T03:34:23.285Z,88.90
2022-07-28T03:35:26.898Z,88.87
2022-07-28T03:36:32.848Z,89.05
2022-07-28T03:37:53.903Z,88.92
2022-07-28T03:39:03.382Z,88.67
2022-07-28T03:40:10.435Z,88.49
2022-07-28T03:41:16.056Z,88.20
2022-07-28T03:42:19.103Z,88.35
2022-07-28T03:43:23.518Z,88.46
2022-07-28T03:44:27.955Z,88.56
2022-07-28T03:45:30.778Z,88.83
2022-07-28T03:46:33.790Z,88.83
2022-07-28T03:47:36.051Z,88.86
2022-07-28T03:48:38.525Z,88.69
2022-07-28T03:49:40.837Z,88.20
2022-07-28T03:50:43.266Z,88.17
2022-07-28T03:51:45.439Z,88.00
2022-07-28T03:52:47.680Z,87.77
2022-07-28T03:53:50.143Z,87.63
2022-07-28T03:54:52.911Z,87.96
2022-07-28T03:55:56.191Z,88.08
2022-07-28T03:56:58.861Z,88.16
2022-07-28T03:58:01.087Z,88.58
2022-07-28T03:59:03.600Z,88.46
2022-07-28T04:00:09.864Z,88.64
2022-07-28T04:01:15.149Z,88.63
2022-07-28T04:02:17.582Z,88.56
2022-07-28T04:03:22.635Z,88.55
2022-07-28T04:04:24.668Z,88.14
2022-07-28T04:05:28.123Z,88.01
2022-07-28T04:06:30.863Z,87.99
2022-07-28T04:07:33.036Z,88.25
2022-07-28T04:08:35.290Z,88.38
2022-07-28T04:09:37.491Z,88.48
2022-07-28T04:10:40.326Z,87.90
2022-07-28T04:11:42.479Z,87.70
2022-07-28T04:12:52.318Z,87.71
2022-07-28T04:13:57.703Z,86.87
2022-07-28T04:14:59.988Z,87.14
2022-07-28T04:16:02.652Z,86.73
2022-07-28T04:17:04.768Z,86.73
2022-07-28T04:18:07.064Z,86.48
2022-07-28T04:19:10.878Z,86.49
2022-07-28T04:20:14.895Z,85.95
2022-07-28T04:21:17.053Z,85.86
2022-07-28T04:22:19.341Z,84.33
2022-07-28T04:23:22.186Z,83.29
2022-07-28T04:24:25.496Z,82.88
2022-07-28T04:25:27.587Z,83.00
2022-07-28T04:26:30.708Z,81.64
2022-07-28T04:27:35.326Z,82.40
2022-07-28T04:28:37.781Z,82.03
2022-07-28T04:29:40.035Z,82.02
2022-07-28T04:30:43.831Z,82.08
2022-07-28T04:31:46.708Z,81.62
2022-07-28T04:32:50.302Z,80.17
2022-07-28T04:33:52.866Z,79.74
2022-07-28T04:34:55.566Z,78.62
2022-07-28T04:35:57.759Z,78.71
2022-07-28T04:36:59.923Z,78.36
2022-07-28T04:38:02.109Z,78.08
2022-07-28T04:39:04.370Z,78.07
2022-07-28T04:40:09.460Z,77.32
2022-07-28T04:41:12.152Z,77.73
2022-07-28T04:42:15.447Z,77.02
2022-07-28T04:43:17.815Z,76.15
2022-07-28T04:44:20.188Z,76.51
2022-07-28T04:45:23.028Z,76.29
2022-07-28T04:46:26.516Z,75.95
2022-07-28T04:47:28.886Z,75.23
2022-07-28T04:48:31.054Z,76.11
2022-07-28T04:49:33.087Z,76.07
2022-07-28T04:50:39.309Z,76.36
2022-07-28T04:51:41.523Z,76.43
2022-07-28T04:52:43.886Z,75.92
2022-07-28T04:53:46.820Z,75.32
2022-07-28T04:54:49.760Z,74.74
2022-07-28T04:55:53.364Z,75.08
2022-07-28T04:56:56.100Z,75.19
2022-07-28T04:57:58.235Z,75.12
2022-07-28T04:59:01.138Z,74.25
2022-07-28T05:00:07.933Z,74.24
2022-07-28T05:01:10.608Z,74.16
2022-07-28T05:02:13.217Z,74.13
2022-07-28T05:03:18.034Z,73.94
2022-07-28T05:04:21.524Z,74.47
2022-07-28T05:05:24.605Z,74.92
2022-07-28T05:06:28.352Z,74.82
2022-07-28T05:07:30.491Z,74.47
2022-07-28T05:08:32.536Z,74.34
2022-07-28T05:09:34.786Z,74.15
2022-07-28T05:10:37.558Z,73.45
2022-07-28T05:11:39.722Z,73.61
2022-07-28T05:12:42.379Z,73.69
2022-07-28T05:13:44.631Z,73.56
2022-07-28T05:14:46.794Z,73.39
2022-07-28T05:15:48.959Z,73.47
2022-07-28T05:16:51.876Z,72.72
2022-07-28T05:17:55.158Z,72.25
2022-07-28T05:18:57.986Z,72.22
2022-07-28T05:20:02.579Z,71.94
2022-07-28T05:21:06.292Z,72.36
2022-07-28T05:22:08.375Z,72.03
2022-07-28T05:23:11.026Z,71.66
2022-07-28T05:24:13.525Z,71.56
2022-07-28T05:25:18.882Z,71.50
2022-07-28T05:26:22.097Z,70.63
2022-07-28T05:27:25.274Z,70.61
2022-07-28T05:28:27.880Z,70.73
2022-07-28T05:29:37.549Z,69.64
2022-07-28T05:30:34.886Z,69.64
2022-07-28T05:31:38.267Z,69.37
2022-07-28T05:32:40.878Z,69.43
2022-07-28T05:33:43.461Z,68.91
2022-07-28T05:34:45.542Z,68.59
2022-07-28T05:35:54.424Z,68.38
2022-07-28T05:36:56.774Z,68.36
2022-07-28T05:37:59.043Z,68.41
2022-07-28T05:39:01.213Z,68.24
2022-07-28T05:40:06.422Z,68.45
2022-07-28T05:41:09.464Z,68.74
2022-07-28T05:42:11.764Z,68.54
2022-07-28T05:43:13.921Z,68.69
2022-07-28T05:44:16.644Z,68.48
2022-07-28T05:45:19.188Z,68.93
2022-07-28T05:46:23.007Z,69.36
2022-07-28T05:47:25.744Z,68.10
2022-07-28T05:48:28.287Z,68.91
2022-07-28T05:49:30.558Z,68.75
2022-07-28T05:50:34.042Z,68.79
2022-07-28T05:51:41.382Z,68.48
2022-07-28T05:52:40.443Z,68.76
2022-07-28T05:53:42.652Z,68.88
2022-07-28T05:54:44.835Z,68.70
2022-07-28T05:55:59.637Z,68.26
2022-07-28T05:56:51.997Z,68.86
2022-07-28T05:57:54.385Z,68.35
2022-07-28T05:58:57.729Z,68.35
2022-07-28T05:59:59.951Z,68.49
2022-07-28T06:01:02.874Z,68.13
2022-07-28T06:02:05.415Z,68.17
2022-07-28T06:03:07.713Z,68.50
2022-07-28T06:04:26.069Z,68.71
2022-07-28T06:05:16.643Z,68.75
2022-07-28T06:06:21.661Z,68.54
2022-07-28T06:07:23.959Z,68.76
2022-07-28T06:08:28.109Z,68.76
2022-07-28T06:09:30.483Z,68.75
2022-07-28T06:10:33.039Z,68.59
2022-07-28T06:11:35.143Z,67.97
2022-07-28T06:12:41.967Z,67.86
2022-07-28T06:13:44.176Z,67.00
2022-07-28T06:14:46.271Z,66.79
2022-07-28T06:15:49.261Z,66.58
2022-07-28T06:16:51.875Z,66.13
2022-07-28T06:17:54.682Z,65.26
2022-07-28T06:18:56.964Z,65.56
2022-07-28T06:19:59.127Z,65.80
2022-07-28T06:21:01.501Z,65.96
2022-07-28T06:22:03.672Z,66.23
2022-07-28T06:23:05.794Z,65.89
2022-07-28T06:24:08.549Z,65.67
2022-07-28T06:26:33.994Z,65.57
2022-07-28T06:27:36.133Z,65.15
2022-07-28T06:28:38.287Z,65.45
2022-07-28T06:29:40.547Z,65.57
2022-07-28T06:30:43.035Z,65.80
2022-07-28T06:31:45.087Z,65.87
2022-07-28T06:32:48.450Z,65.42
2022-07-28T06:33:50.844Z,65.25
2022-07-28T06:34:53.168Z,64.95
2022-07-28T06:35:56.372Z,64.71
2022-07-28T06:36:59.816Z,64.96
2022-07-28T06:38:02.102Z,63.87
2022-07-28T06:39:04.762Z,64.31
2022-07-28T06:40:08.432Z,63.26
2022-07-28T06:41:10.548Z,62.36
2022-07-28T06:42:12.910Z,62.14
2022-07-28T06:43:16.098Z,62.00
2022-07-28T06:44:18.825Z,62.09
2022-07-28T06:45:23.389Z,61.27
2022-07-28T06:46:26.395Z,61.08
2022-07-28T06:47:30.427Z,60.78
2022-07-28T06:48:33.440Z,59.91
2022-07-28T06:49:35.628Z,59.89
2022-07-28T06:50:37.956Z,60.17
2022-07-28T06:51:40.310Z,60.79
2022-07-28T06:52:42.882Z,60.85
2022-07-28T06:53:46.257Z,61.01
2022-07-28T06:54:50.032Z,61.20
2022-07-28T06:55:53.147Z,61.28
2022-07-28T06:56:56.088Z,61.41
2022-07-28T06:57:59.771Z,61.08
2022-07-28T06:59:02.437Z,60.47
2022-07-28T07:00:06.982Z,60.05
2022-07-28T07:01:09.701Z,59.28
2022-07-28T07:02:14.325Z,59.06
2022-07-28T07:03:19.268Z,57.92
2022-07-28T07:04:21.477Z,58.12
2022-07-28T07:05:26.896Z,57.58
2022-07-28T07:06:29.725Z,58.25
2022-07-28T07:07:32.000Z,58.66
2022-07-28T07:08:34.360Z,58.82
2022-07-28T07:09:37.157Z,58.95
2022-07-28T07:10:39.759Z,58.18
2022-07-28T07:11:42.707Z,57.53
2022-07-28T07:12:46.070Z,58.05
2022-07-28T07:13:49.523Z,58.18
2022-07-28T07:14:51.906Z,58.13
2022-07-28T07:15:54.305Z,57.64
2022-07-28T07:16:57.063Z,57.93
2022-07-28T07:17:59.818Z,58.11
2022-07-28T07:19:06.405Z,58.18
2022-07-28T07:20:08.856Z,58.27
2022-07-28T07:21:11.204Z,58.27
2022-07-28T07:22:14.906Z,58.32
2022-07-28T07:23:17.699Z,57.13
2022-07-28T07:24:21.148Z,58.15
2022-07-28T07:25:25.208Z,58.82
2022-07-28T07:26:29.366Z,57.73
2022-07-28T07:27:31.572Z,58.25
2022-07-28T07:28:34.915Z,57.70
2022-07-28T07:29:37.260Z,57.77
2022-07-28T07:30:39.547Z,57.67
2022-07-28T07:31:41.747Z,58.01
2022-07-28T07:32:48.588Z,58.21
2022-07-28T07:33:51.013Z,58.24
2022-07-28T07:34:53.294Z,58.12
2022-07-28T07:35:55.485Z,57.80
2022-07-28T07:36:57.919Z,58.09
2022-07-28T07:38:00.566Z,58.22
2022-07-28T07:39:02.722Z,58.36
2022-07-28T07:40:07.233Z,58.09
2022-07-28T07:41:09.369Z,57.89
2022-07-28T07:42:13.352Z,57.89
2022-07-28T07:43:15.651Z,57.15
2022-07-28T07:44:18.101Z,57.04
2022-07-28T07:45:20.564Z,57.36
2022-07-28T07:46:30.362Z,57.44
2022-07-28T07:47:50.818Z,57.14
2022-07-28T07:48:53.737Z,57.25
2022-07-28T07:49:56.047Z,57.28
2022-07-28T07:50:59.635Z,56.42
2022-07-28T07:52:03.038Z,55.79
2022-07-28T07:53:05.996Z,56.20
2022-07-28T07:54:08.207Z,55.87
2022-07-28T07:55:12.357Z,56.15
2022-07-28T07:56:15.081Z,56.42
2022-07-28T07:57:18.309Z,56.35
2022-07-28T07:58:21.595Z,56.37
2022-07-28T07:59:26.103Z,56.01
2022-07-28T08:00:31.217Z,56.01
2022-07-28T08:01:44.517Z,54.93
2022-07-28T08:02:51.208Z,55.17
2022-07-28T08:03:53.747Z,55.11
2022-07-28T08:04:56.429Z,54.73
2022-07-28T08:05:59.163Z,54.64
2022-07-28T08:07:03.356Z,54.75
2022-07-28T08:08:07.632Z,54.74
2022-07-28T08:09:10.331Z,55.18
2022-07-28T08:10:13.187Z,55.11
2022-07-28T08:11:15.336Z,55.17
2022-07-28T08:12:17.487Z,55.23
2022-07-28T08:13:22.526Z,54.47
2022-07-28T08:14:24.672Z,54.97
2022-07-28T08:15:26.923Z,54.07
2022-07-28T08:16:30.874Z,54.38
2022-07-28T08:17:33.355Z,54.80
2022-07-28T08:18:35.444Z,54.54
2022-07-28T08:19:37.672Z,54.62
2022-07-28T08:20:41.707Z,55.12
2022-07-28T08:21:44.070Z,55.05
2022-07-28T08:24:03.529Z,55.45
2022-07-28T08:25:06.788Z,55.25
2022-07-28T08:26:09.947Z,55.04
2022-07-28T08:27:12.267Z,54.79
2022-07-28T08:28:15.036Z,54.70
2022-07-28T08:29:17.116Z,55.04
2022-07-28T08:30:23.143Z,55.04
2022-07-28T08:31:25.871Z,54.83
2022-07-28T08:32:28.126Z,54.29
2022-07-28T08:33:30.224Z,53.99
2022-07-28T08:34:34.222Z,52.77
2022-07-28T08:35:36.538Z,51.44
2022-07-28T08:36:38.990Z,52.54
2022-07-28T08:37:41.101Z,51.54
2022-07-28T08:38:43.258Z,51.30
2022-07-28T08:39:45.577Z,52.19
2022-07-28T08:40:49.721Z,52.76
2022-07-28T08:42:08.192Z,52.64
2022-07-28T08:43:34.082Z,52.54
2022-07-28T08:44:53.986Z,52.97
2022-07-28T08:45:58.811Z,51.66
2022-07-28T08:47:02.486Z,50.10
2022-07-28T08:48:09.374Z,50.83
2022-07-28T08:49:15.419Z,51.60
2022-07-28T08:50:20.899Z,51.76
2022-07-28T08:51:26.521Z,51.69
2022-07-28T08:52:30.506Z,51.24
2022-07-28T08:53:35.079Z,50.45
2022-07-28T08:54:43.018Z,50.97
2022-07-28T08:55:47.059Z,50.86
2022-07-28T08:56:50.094Z,51.01
2022-07-28T08:57:54.556Z,50.86
2022-07-28T08:58:58.956Z,50.32
2022-07-28T09:00:01.653Z,50.23
2022-07-28T09:01:05.907Z,50.52
2022-07-28T09:02:11.055Z,50.64
2022-07-28T09:03:14.322Z,50.99
2022-07-28T09:04:18.235Z,51.20
2022-07-28T09:05:22.401Z,50.86
2022-07-28T09:06:26.871Z,51.13
2022-07-28T09:07:31.042Z,50.33
2022-07-28T09:08:33.946Z,50.56
2022-07-28T09:09:37.428Z,50.69
2022-07-28T09:10:39.967Z,50.37
2022-07-28T09:11:43.325Z,50.22
2022-07-28T09:12:46.064Z,50.08
2022-07-28T09:13:53.563Z,48.48
2022-07-28T09:14:52.417Z,48.90
2022-07-28T09:15:54.716Z,48.77
2022-07-28T09:16:59.700Z,49.40
2022-07-28T09:18:01.998Z,47.74
2022-07-28T09:19:04.023Z,46.69
2022-07-28T09:20:11.323Z,47.08
2022-07-28T09:21:13.754Z,46.84
2022-07-28T09:22:16.732Z,47.46
2022-07-28T09:23:42.961Z,48.22
2022-07-28T09:24:40.089Z,48.28
2022-07-28T09:25:42.249Z,48.04
2022-07-28T09:28:18.236Z,47.47
2022-07-28T09:29:25.375Z,47.84
2022-07-28T09:30:30.503Z,48.00
2022-07-28T09:31:32.812Z,47.52
2022-07-28T09:32:35.677Z,47.54
2022-07-28T09:33:43.248Z,47.98
2022-07-28T09:34:47.843Z,48.73
2022-07-28T09:35:52.562Z,47.67
2022-07-28T09:36:55.595Z,47.08
2022-07-28T09:38:01.174Z,47.57
2022-07-28T09:39:03.658Z,47.25
2022-07-28T09:40:13.232Z,47.64
2022-07-28T09:41:15.304Z,47.68
2022-07-28T09:42:17.798Z,47.61
2022-07-28T09:43:32.158Z,47.59
2022-07-28T09:44:34.386Z,47.20
2022-07-28T09:45:36.465Z,47.71
2022-07-28T09:46:39.344Z,47.63
2022-07-28T09:47:41.899Z,47.98
2022-07-28T09:48:53.424Z,47.84
2022-07-28T09:49:55.722Z,48.05
2022-07-28T09:51:12.733Z,46.91
2022-07-28T09:52:31.062Z,47.41
2022-07-28T09:53:33.236Z,46.09
2022-07-28T09:54:40.543Z,45.87
2022-07-28T09:55:44.018Z,46.35
2022-07-28T09:56:47.572Z,46.33
2022-07-28T09:57:49.732Z,46.56
2022-07-28T09:58:57.306Z,45.91
2022-07-28T10:00:00.194Z,45.88
2022-07-28T10:01:09.055Z,43.60
2022-07-28T10:02:11.802Z,43.73
2022-07-28T10:03:26.020Z,44.74
2022-07-28T10:04:30.603Z,45.33
2022-07-28T10:05:39.550Z,44.18
2022-07-28T10:06:42.633Z,43.93
2022-07-28T10:07:49.069Z,44.33
2022-07-28T10:08:52.372Z,44.67
2022-07-28T10:10:03.544Z,44.19
2022-07-28T10:11:06.527Z,44.24
2022-07-28T10:12:16.719Z,43.90
2022-07-28T10:13:19.026Z,43.85
2022-07-28T10:14:24.770Z,43.78
2022-07-28T10:15:31.108Z,44.10
2022-07-28T10:16:35.995Z,43.83
2022-07-28T10:17:38.916Z,44.83
2022-07-28T10:18:43.132Z,44.71
2022-07-28T10:19:46.348Z,44.97
2022-07-28T10:20:49.070Z,44.86
2022-07-28T10:21:54.203Z,44.17
2022-07-28T10:23:00.137Z,45.01
2022-07-28T10:24:05.710Z,44.73
2022-07-28T10:25:10.333Z,44.25
2022-07-28T10:26:15.197Z,44.62
2022-07-28T10:27:18.813Z,44.98
2022-07-28T10:28:22.191Z,44.96
2022-07-28T10:29:25.255Z,44.63
2022-07-28T10:30:32.421Z,44.10
2022-07-28T10:31:47.102Z,43.86
2022-07-28T10:32:50.720Z,43.84
2022-07-28T10:33:54.891Z,44.09
2022-07-28T10:34:59.971Z,43.71
2022-07-28T10:36:03.703Z,44.02
2022-07-28T10:37:09.472Z,43.68
2022-07-28T10:38:14.177Z,43.26
2022-07-28T10:39:20.352Z,43.39
2022-07-28T10:40:27.506Z,43.29
2022-07-28T10:41:33.449Z,43.48
2022-07-28T10:42:36.631Z,43.40
2022-07-28T10:43:42.721Z,43.48
2022-07-28T10:44:46.467Z,43.02
2022-07-28T10:46:06.697Z,42.90
2022-07-28T10:46:54.018Z,41.02
2022-07-28T10:47:57.344Z,41.06
2022-07-28T10:49:03.659Z,41.59
2022-07-28T10:50:05.924Z,41.84
2022-07-28T10:51:08.737Z,41.76
2022-07-28T10:52:30.469Z,41.66
2022-07-28T10:53:34.557Z,41.14
2022-07-28T10:55:00.158Z,41.78
2022-07-28T10:56:09.200Z,42.40
2022-07-28T10:57:13.516Z,41.83
2022-07-28T10:58:40.734Z,41.92
2022-07-28T10:59:48.723Z,41.70
2022-07-28T11:00:56.468Z,41.95
2022-07-28T11:01:59.768Z,42.16
2022-07-28T11:03:13.421Z,41.44
2022-07-28T11:04:07.544Z,41.45
2022-07-28T11:05:35.513Z,40.88
2022-07-28T11:06:38.827Z,41.06
2022-07-28T11:07:40.977Z,42.10
2022-07-28T11:08:43.350Z,41.51
2022-07-28T11:09:49.353Z,40.62
2022-07-28T11:11:00.730Z,39.67
2022-07-28T11:11:59.858Z,39.04
2022-07-28T11:13:04.233Z,38.78
2022-07-28T11:14:31.197Z,38.98
2022-07-28T11:15:37.077Z,39.57
2022-07-28T11:16:41.000Z,38.75
2022-07-28T11:17:48.590Z,39.59
2022-07-28T11:19:40.093Z,38.75
2022-07-28T11:20:26.043Z,38.52
2022-07-28T11:21:20.645Z,38.85
2022-07-28T11:22:25.020Z,38.83
2022-07-28T11:23:40.411Z,36.85
2022-07-28T11:25:00.778Z,37.66
2022-07-28T11:26:24.239Z,37.72
2022-07-28T11:27:45.410Z,38.18
2022-07-28T11:29:03.809Z,38.00
2022-07-28T11:30:09.823Z,37.65
2022-07-28T11:31:13.218Z,37.35
2022-07-28T11:32:15.559Z,37.29
2022-07-28T11:33:19.293Z,37.44
2022-07-28T11:34:23.750Z,36.59
2022-07-28T11:35:29.159Z,36.45
2022-07-28T11:37:04.231Z,36.13
2022-07-28T11:38:11.783Z,37.09
2022-07-28T11:39:28.179Z,37.20
2022-07-28T11:40:38.873Z,37.03
2022-07-28T11:41:42.159Z,37.75
2022-07-28T11:42:46.529Z,37.10
2022-07-28T11:43:49.925Z,36.87
2022-07-28T11:44:53.707Z,36.33
2022-07-28T11:46:09.508Z,35.17
2022-07-28T11:47:18.126Z,35.91
2022-07-28T11:48:23.297Z,35.74
2022-07-28T11:49:26.363Z,36.62
2022-07-28T11:50:29.939Z,36.31
2022-07-28T11:51:38.783Z,36.31
2022-07-28T11:52:38.839Z,36.05
2022-07-28T11:53:53.295Z,36.25
2022-07-28T11:54:57.900Z,34.80
2022-07-28T11:56:03.325Z,34.93
2022-07-28T11:57:07.026Z,34.57
2022-07-28T11:58:14.109Z,35.05
2022-07-28T11:59:18.004Z,34.87
2022-07-28T12:00:21.978Z,35.17
2022-07-28T12:01:25.282Z,35.34
2022-07-28T12:02:29.354Z,35.39
2022-07-28T12:03:38.551Z,35.36
2022-07-28T12:04:43.141Z,34.83
2022-07-28T12:07:05.296Z,34.56
2022-07-28T12:08:08.033Z,34.87
2022-07-28T12:09:10.819Z,35.31
2022-07-28T12:10:54.092Z,34.59
2022-07-28T12:11:42.682Z,35.29
2022-07-28T12:12:50.869Z,35.08
2022-07-28T12:14:09.602Z,35.04
2022-07-28T12:15:16.371Z,34.98
2022-07-28T12:16:24.217Z,34.69
2022-07-28T12:17:33.934Z,35.26
2022-07-28T12:18:38.489Z,34.24
2022-07-28T12:19:43.515Z,35.38
2022-07-28T12:20:48.758Z,34.53
2022-07-28T12:21:55.717Z,34.63
2022-07-28T12:23:07.350Z,33.73
2022-07-28T12:24:15.257Z,34.32
2022-07-28T12:25:19.936Z,34.21
2022-07-28T12:26:31.746Z,34.58
2022-07-28T12:27:33.997Z,34.14
2022-07-28T12:28:38.081Z,33.73
2022-07-28T12:29:40.350Z,33.45
2022-07-28T12:30:44.430Z,33.50
2022-07-28T12:31:57.080Z,33.27
2022-07-28T12:32:59.496Z,32.60
2022-07-28T12:34:03.273Z,32.17
2022-07-28T12:35:06.826Z,32.47
2022-07-28T12:36:09.863Z,33.54
2022-07-28T12:37:13.754Z,33.09
2022-07-28T12:38:17.498Z,33.45
2022-07-28T12:39:19.928Z,32.67
2022-07-28T12:40:27.457Z,32.50
2022-07-28T12:41:32.211Z,31.58
2022-07-28T12:42:34.336Z,31.61
2022-07-28T12:43:37.128Z,32.80
2022-07-28T12:45:53.406Z,32.84
2022-07-28T12:46:56.820Z,32.92
2022-07-28T12:48:06.353Z,32.28
2022-07-28T12:49:12.417Z,32.45
2022-07-28T12:50:19.364Z,31.49
2022-07-28T12:51:40.886Z,32.41
2022-07-28T12:52:46.011Z,33.25
2022-07-28T12:53:51.445Z,32.98
2022-07-28T12:54:56.601Z,33.28
2022-07-28T12:56:01.799Z,33.44
2022-07-28T12:57:04.009Z,34.10
2022-07-28T12:58:06.524Z,33.21
2022-07-28T12:59:10.313Z,33.24
2022-07-28T13:00:15.341Z,33.16
2022-07-28T13:01:18.331Z,32.20
2022-07-28T13:02:25.248Z,32.69
2022-07-28T13:03:28.769Z,32.64
2022-07-28T13:04:48.548Z,32.47
2022-07-28T13:05:52.868Z,32.49
2022-07-28T13:06:58.596Z,32.03
2022-07-28T13:08:05.787Z,31.99
2022-07-28T13:09:09.611Z,31.63
2022-07-28T13:10:18.379Z,31.74
2022-07-28T13:12:29.365Z,31.67
2022-07-28T13:13:47.582Z,31.15
2022-07-28T13:14:54.747Z,31.12
2022-07-28T13:16:17.295Z,30.46
2022-07-28T13:17:21.744Z,30.62
2022-07-28T13:18:40.551Z,30.40
2022-07-28T13:19:42.991Z,31.58
2022-07-28T13:20:51.294Z,31.94
2022-07-28T13:21:57.291Z,32.12
2022-07-28T13:22:59.484Z,32.48
2022-07-28T13:24:02.765Z,32.63
2022-07-28T13:25:06.729Z,31.80
2022-07-28T13:26:09.600Z,32.14
2022-07-28T13:27:11.972Z,32.16
2022-07-28T13:28:26.008Z,31.69
2022-07-28T13:29:29.570Z,31.25
2022-07-28T13:30:33.092Z,30.81
2022-07-28T13:31:37.188Z,30.37
2022-07-28T13:32:40.510Z,29.61
2022-07-28T13:33:44.549Z,29.82
2022-07-28T13:34:47.101Z,29.46
2022-07-28T13:35:49.395Z,29.22
2022-07-28T13:36:51.831Z,29.68
2022-07-28T13:37:54.810Z,29.53
2022-07-28T13:38:57.274Z,29.73
2022-07-28T13:39:59.647Z,29.60
2022-07-28T13:41:01.864Z,29.33
2022-07-28T13:42:05.622Z,29.48
2022-07-28T13:43:11.342Z,29.52
2022-07-28T13:44:12.718Z,28.96
2022-07-28T13:45:17.171Z,29.76
2022-07-28T13:46:20.631Z,30.84
2022-07-28T13:47:23.546Z,30.73
2022-07-28T13:48:26.257Z,30.16
2022-07-28T13:49:32.548Z,29.25
2022-07-28T13:50:37.192Z,28.62
2022-07-28T13:51:39.648Z,28.58
2022-07-28T13:52:41.650Z,28.56
2022-07-28T13:53:45.119Z,29.43
2022-07-28T13:54:50.617Z,29.31
2022-07-28T13:55:53.497Z,29.10
2022-07-28T13:57:12.162Z,28.14
2022-07-28T13:58:15.622Z,28.29
2022-07-28T13:59:20.842Z,28.65
2022-07-28T14:00:26.497Z,28.46
2022-07-28T14:01:29.738Z,27.84
2022-07-28T14:02:32.224Z,27.99
2022-07-28T14:03:50.869Z,28.06
2022-07-28T14:04:42.208Z,27.50
2022-07-28T14:05:46.184Z,27.55
2022-07-28T14:06:49.182Z,27.02
2022-07-28T14:07:51.159Z,27.62
2022-07-28T14:08:54.914Z,26.90
2022-07-28T14:09:58.629Z,27.22